sensor_id;sensor_type;location;lat;lon;timestamp;P1;durP1;ratioP1;P2;durP2;ratioP2
38220;SDS011;24023;51.280;7.148;2022-11-20T00:00:11;9.2;;;8.3;;
38220;SDS011;24023;51.280;7.148;2022-11-20T00:05:06;8.7;;;7.9;;
38220;SDS011;24023;51.280;7.148;2022-11-20T00:10:07;8.7;;;7.9;;
38220;SDS011;24023;51.280;7.148;2022-11-20T00:15:08;8.7;;;7.9;;
38220;SDS011;24023;51.280;7.148;2022-11-20T00:20:08;9.2;;;8.3;;
38220;SDS011;24023;51.280;7.148;2022-11-20T00:25:07;9.2;;;8.3;;
38220;SDS011;24023;51.280;7.148;2022-11-20T00:30:09;8.6;;;7.7;;
38220;SDS011;24023;51.280;7.148;2022-11-20T00:35:06;8.6;;;7.7;;
38220;SDS011;24023;51.280;7.148;2022-11-20T00:40:08;8.7;;;7.8;;
38220;SDS011;24023;51.280;7.148;2022-11-20T00:45:09;8.7;;;7.8;;
38220;SDS011;24023;51.280;7.148;2022-11-20T00:50:08;8.7;;;7.8;;
38220;SDS011;24023;51.280;7.148;2022-11-20T00:55:06;9.9;;;8.9;;
38220;SDS011;24023;51.280;7.148;2022-11-20T01:00:10;9.9;;;8.9;;
38220;SDS011;24023;51.280;7.148;2022-11-20T01:05:07;10.5;;;9.4;;
38220;SDS011;24023;51.280;7.148;2022-11-20T01:10:08;10.5;;;9.4;;
38220;SDS011;24023;51.280;7.148;2022-11-20T01:15:08;10.5;;;9.4;;
38220;SDS011;24023;51.280;7.148;2022-11-20T01:20:08;10.1;;;8.5;;
38220;SDS011;24023;51.280;7.148;2022-11-20T01:25:06;10.1;;;8.5;;
38220;SDS011;24023;51.280;7.148;2022-11-20T01:30:09;10.3;;;9.2;;
38220;SDS011;24023;51.280;7.148;2022-11-20T01:35:06;10.3;;;9.2;;
38220;SDS011;24023;51.280;7.148;2022-11-20T01:40:08;10.3;;;9.2;;
38220;SDS011;24023;51.280;7.148;2022-11-20T01:45:50;10.8;;;9.2;;
38220;SDS011;24023;51.280;7.148;2022-11-20T01:50:09;10.8;;;9.2;;
38220;SDS011;24023;51.280;7.148;2022-11-20T01:55:07;10.4;;;9.3;;
38220;SDS011;24023;51.280;7.148;2022-11-20T02:00:11;10.4;;;9.3;;
38220;SDS011;24023;51.280;7.148;2022-11-20T02:05:09;10.4;;;9.3;;
38220;SDS011;24023;51.280;7.148;2022-11-20T02:10:08;10.8;;;9.7;;
38220;SDS011;24023;51.280;7.148;2022-11-20T02:15:07;10.8;;;9.7;;
38220;SDS011;24023;51.280;7.148;2022-11-20T02:20:08;11.2;;;10.1;;
38220;SDS011;24023;51.280;7.148;2022-11-20T02:25:06;11.2;;;10.1;;
38220;SDS011;24023;51.280;7.148;2022-11-20T02:30:09;10.3;;;9.2;;
38220;SDS011;24023;51.280;7.148;2022-11-20T02:35:07;11.9;;;10.3;;
38220;SDS011;24023;51.280;7.148;2022-11-20T02:40:08;11.9;;;10.3;;
38220;SDS011;24023;51.280;7.148;2022-11-20T02:45:09;11.9;;;10.3;;
38220;SDS011;24023;51.280;7.148;2022-11-20T02:50:08;11.8;;;10.6;;
38220;SDS011;24023;51.280;7.148;2022-11-20T02:55:06;11.8;;;10.6;;
38220;SDS011;24023;51.280;7.148;2022-11-20T03:00:11;11.6;;;10.4;;
38220;SDS011;24023;51.280;7.148;2022-11-20T03:05:07;11.6;;;10.4;;
38220;SDS011;24023;51.280;7.148;2022-11-20T03:10:08;11.6;;;10.4;;
38220;SDS011;24023;51.280;7.148;2022-11-20T03:15:07;11.9;;;10.4;;
38220;SDS011;24023;51.280;7.148;2022-11-20T03:20:08;11.9;;;10.4;;
38220;SDS011;24023;51.280;7.148;2022-11-20T03:25:06;12.6;;;11.3;;
38220;SDS011;24023;51.280;7.148;2022-11-20T03:30:09;12.6;;;11.3;;
38220;SDS011;24023;51.280;7.148;2022-11-20T03:35:07;12.6;;;11.3;;
38220;SDS011;24023;51.280;7.148;2022-11-20T03:40:08;13.4;;;11.6;;
38220;SDS011;24023;51.280;7.148;2022-11-20T03:45:10;13.4;;;11.6;;
38220;SDS011;24023;51.280;7.148;2022-11-20T03:50:08;14.6;;;12.3;;
38220;SDS011;24023;51.280;7.148;2022-11-20T03:55:07;14.6;;;12.3;;
38220;SDS011;24023;51.280;7.148;2022-11-20T04:00:11;14.2;;;12.7;;
38220;SDS011;24023;51.280;7.148;2022-11-20T04:05:07;14.2;;;12.7;;
38220;SDS011;24023;51.280;7.148;2022-11-20T04:10:07;14.2;;;12.7;;
38220;SDS011;24023;51.280;7.148;2022-11-20T04:15:07;13.9;;;12.4;;
38220;SDS011;24023;51.280;7.148;2022-11-20T04:20:07;13.9;;;12.4;;
38220;SDS011;24023;51.280;7.148;2022-11-20T04:25:07;13.2;;;11.8;;
38220;SDS011;24023;51.280;7.148;2022-11-20T04:30:10;13.2;;;11.8;;
38220;SDS011;24023;51.280;7.148;2022-11-20T04:35:06;13.2;;;11.8;;
38220;SDS011;24023;51.280;7.148;2022-11-20T04:40:08;13.4;;;11.9;;
38220;SDS011;24023;51.280;7.148;2022-11-20T04:45:09;13.4;;;11.9;;
38220;SDS011;24023;51.280;7.148;2022-11-20T04:50:08;12.5;;;10.8;;
38220;SDS011;24023;51.280;7.148;2022-11-20T04:55:07;12.5;;;10.8;;
38220;SDS011;24023;51.280;7.148;2022-11-20T05:00:12;12.5;;;10.8;;
38220;SDS011;24023;51.280;7.148;2022-11-20T05:05:06;13.9;;;12.2;;
38220;SDS011;24023;51.280;7.148;2022-11-20T05:10:08;13.9;;;12.2;;
38220;SDS011;24023;51.280;7.148;2022-11-20T05:15:07;13.4;;;12.0;;
38220;SDS011;24023;51.280;7.148;2022-11-20T05:20:08;13.4;;;12.0;;
38220;SDS011;24023;51.280;7.148;2022-11-20T05:25:07;13.3;;;11.4;;
38220;SDS011;24023;51.280;7.148;2022-11-20T05:30:09;13.3;;;11.4;;
38220;SDS011;24023;51.280;7.148;2022-11-20T05:35:07;13.3;;;11.4;;
38220;SDS011;24023;51.280;7.148;2022-11-20T05:40:08;12.6;;;11.3;;
38220;SDS011;24023;51.280;7.148;2022-11-20T05:45:10;12.6;;;11.3;;
38220;SDS011;24023;51.280;7.148;2022-11-20T05:50:08;12.6;;;11.2;;
38220;SDS011;24023;51.280;7.148;2022-11-20T05:55:07;12.6;;;11.2;;
38220;SDS011;24023;51.280;7.148;2022-11-20T06:00:11;12.6;;;11.2;;
38220;SDS011;24023;51.280;7.148;2022-11-20T06:05:06;14.1;;;12.5;;
38220;SDS011;24023;51.280;7.148;2022-11-20T06:10:07;14.1;;;12.5;;
38220;SDS011;24023;51.280;7.148;2022-11-20T06:15:07;12.8;;;11.5;;
38220;SDS011;24023;51.280;7.148;2022-11-20T06:20:07;12.8;;;11.5;;
38220;SDS011;24023;51.280;7.148;2022-11-20T06:25:07;12.8;;;11.5;;
38220;SDS011;24023;51.280;7.148;2022-11-20T06:30:09;13.3;;;11.9;;
38220;SDS011;24023;51.280;7.148;2022-11-20T06:35:06;13.3;;;11.9;;
38220;SDS011;24023;51.280;7.148;2022-11-20T06:40:08;11.8;;;10.6;;
38220;SDS011;24023;51.280;7.148;2022-11-20T06:45:09;11.8;;;10.6;;
38220;SDS011;24023;51.280;7.148;2022-11-20T06:50:08;11.8;;;10.6;;
38220;SDS011;24023;51.280;7.148;2022-11-20T06:55:07;10.8;;;9.7;;
38220;SDS011;24023;51.280;7.148;2022-11-20T07:00:11;10.8;;;9.7;;
38220;SDS011;24023;51.280;7.148;2022-11-20T07:05:06;9.8;;;8.4;;
38220;SDS011;24023;51.280;7.148;2022-11-20T07:10:07;9.8;;;8.4;;
38220;SDS011;24023;51.280;7.148;2022-11-20T07:15:07;9.8;;;8.4;;
38220;SDS011;24023;51.280;7.148;2022-11-20T07:20:08;9.2;;;8.3;;
38220;SDS011;24023;51.280;7.148;2022-11-20T07:25:07;10.8;;;8.2;;
38220;SDS011;24023;51.280;7.148;2022-11-20T07:30:09;10.8;;;8.2;;
38220;SDS011;24023;51.280;7.148;2022-11-20T07:35:06;10.8;;;8.2;;
38220;SDS011;24023;51.280;7.148;2022-11-20T07:40:08;9.7;;;8.6;;
38220;SDS011;24023;51.280;7.148;2022-11-20T07:45:10;9.7;;;8.6;;
38220;SDS011;24023;51.280;7.148;2022-11-20T07:50:08;9.4;;;8.4;;
38220;SDS011;24023;51.280;7.148;2022-11-20T07:55:07;9.4;;;8.4;;
38220;SDS011;24023;51.280;7.148;2022-11-20T08:00:10;9.4;;;8.4;;
38220;SDS011;24023;51.280;7.148;2022-11-20T08:05:07;5.0;;;4.5;;
38220;SDS011;24023;51.280;7.148;2022-11-20T08:10:08;5.0;;;4.5;;
38220;SDS011;24023;51.280;7.148;2022-11-20T08:15:08;5.0;;;4.5;;
38220;SDS011;24023;51.280;7.148;2022-11-20T08:20:08;5.3;;;4.8;;
38220;SDS011;24023;51.280;7.148;2022-11-20T08:25:06;5.3;;;4.8;;
38220;SDS011;24023;51.280;7.148;2022-11-20T08:30:10;6.3;;;5.7;;
38220;SDS011;24023;51.280;7.148;2022-11-20T08:35:06;6.3;;;5.7;;
38220;SDS011;24023;51.280;7.148;2022-11-20T08:40:09;6.3;;;5.7;;
38220;SDS011;24023;51.280;7.148;2022-11-20T08:45:09;6.3;;;5.7;;
38220;SDS011;24023;51.280;7.148;2022-11-20T08:50:07;6.3;;;5.7;;
38220;SDS011;24023;51.280;7.148;2022-11-20T08:55:06;5.5;;;5.0;;
38220;SDS011;24023;51.280;7.148;2022-11-20T09:00:11;5.5;;;5.0;;
38220;SDS011;24023;51.280;7.148;2022-11-20T09:05:06;5.8;;;5.2;;
38220;SDS011;24023;51.280;7.148;2022-11-20T09:10:08;5.8;;;5.2;;
38220;SDS011;24023;51.280;7.148;2022-11-20T09:15:08;5.8;;;5.2;;
38220;SDS011;24023;51.280;7.148;2022-11-20T09:20:08;5.9;;;5.3;;
38220;SDS011;24023;51.280;7.148;2022-11-20T09:25:06;5.9;;;5.3;;
38220;SDS011;24023;51.280;7.148;2022-11-20T09:30:09;5.5;;;4.9;;
38220;SDS011;24023;51.280;7.148;2022-11-20T09:35:07;5.5;;;4.9;;
38220;SDS011;24023;51.280;7.148;2022-11-20T09:40:09;5.5;;;4.9;;
38220;SDS011;24023;51.280;7.148;2022-11-20T09:45:13;5.6;;;5.0;;
38220;SDS011;24023;51.280;7.148;2022-11-20T09:50:13;5.6;;;5.0;;
38220;SDS011;24023;51.280;7.148;2022-11-20T09:55:06;5.9;;;5.3;;
38220;SDS011;24023;51.280;7.148;2022-11-20T10:00:12;5.9;;;5.3;;
38220;SDS011;24023;51.280;7.148;2022-11-20T10:05:09;5.9;;;5.3;;
38220;SDS011;24023;51.280;7.148;2022-11-20T10:10:13;6.1;;;5.5;;
38220;SDS011;24023;51.280;7.148;2022-11-20T10:15:11;6.1;;;5.5;;
38220;SDS011;24023;51.280;7.148;2022-11-20T10:20:12;6.6;;;6.0;;
38220;SDS011;24023;51.280;7.148;2022-11-20T10:25:09;6.6;;;6.0;;
38220;SDS011;24023;51.280;7.148;2022-11-20T10:30:10;6.6;;;6.0;;
38220;SDS011;24023;51.280;7.148;2022-11-20T10:35:09;7.1;;;6.4;;
38220;SDS011;24023;51.280;7.148;2022-11-20T10:40:16;7.1;;;6.4;;
38220;SDS011;24023;51.280;7.148;2022-11-20T10:45:11;7.0;;;6.3;;
38220;SDS011;24023;51.280;7.148;2022-11-20T10:50:09;7.0;;;6.3;;
38220;SDS011;24023;51.280;7.148;2022-11-20T10:55:10;9.2;;;7.4;;
38220;SDS011;24023;51.280;7.148;2022-11-20T11:00:12;9.2;;;7.4;;
38220;SDS011;24023;51.280;7.148;2022-11-20T11:05:10;9.2;;;7.4;;
38220;SDS011;24023;51.280;7.148;2022-11-20T11:10:13;9.3;;;7.7;;
38220;SDS011;24023;51.280;7.148;2022-11-20T11:15:11;9.3;;;7.7;;
38220;SDS011;24023;51.280;7.148;2022-11-20T11:20:15;9.4;;;8.4;;
38220;SDS011;24023;51.280;7.148;2022-11-20T11:25:07;9.4;;;8.4;;
38220;SDS011;24023;51.280;7.148;2022-11-20T11:30:13;9.4;;;8.4;;
38220;SDS011;24023;51.280;7.148;2022-11-20T11:35:11;11.8;;;10.3;;
38220;SDS011;24023;51.280;7.148;2022-11-20T11:40:08;11.8;;;10.3;;
38220;SDS011;24023;51.280;7.148;2022-11-20T11:45:13;11.8;;;10.3;;
38220;SDS011;24023;51.280;7.148;2022-11-20T11:50:13;11.7;;;10.5;;
38220;SDS011;24023;51.280;7.148;2022-11-20T11:55:12;13.5;;;11.4;;
38220;SDS011;24023;51.280;7.148;2022-11-20T12:00:12;13.5;;;11.4;;
38220;SDS011;24023;51.280;7.148;2022-11-20T12:05:10;13.5;;;11.4;;
38220;SDS011;24023;51.280;7.148;2022-11-20T12:15:07;12.7;;;11.4;;
38220;SDS011;24023;51.280;7.148;2022-11-20T12:20:11;12.7;;;11.4;;
38220;SDS011;24023;51.280;7.148;2022-11-20T12:25:07;12.7;;;11.4;;
38220;SDS011;24023;51.280;7.148;2022-11-20T12:30:09;12.7;;;11.4;;
38220;SDS011;24023;51.280;7.148;2022-11-20T12:35:10;14.1;;;12.7;;
38220;SDS011;24023;51.280;7.148;2022-11-20T12:40:13;14.1;;;12.7;;
38220;SDS011;24023;51.280;7.148;2022-11-20T12:45:15;13.1;;;11.6;;
38220;SDS011;24023;51.280;7.148;2022-11-20T12:50:08;13.1;;;11.6;;
38220;SDS011;24023;51.280;7.148;2022-11-20T12:55:09;14.7;;;11.9;;
38220;SDS011;24023;51.280;7.148;2022-11-20T13:00:12;14.7;;;11.9;;
38220;SDS011;24023;51.280;7.148;2022-11-20T13:05:12;12.8;;;11.5;;
38220;SDS011;24023;51.280;7.148;2022-11-20T13:10:11;12.8;;;11.5;;
38220;SDS011;24023;51.280;7.148;2022-11-20T13:15:15;12.8;;;11.5;;
38220;SDS011;24023;51.280;7.148;2022-11-20T13:20:11;14.0;;;12.2;;
38220;SDS011;24023;51.280;7.148;2022-11-20T13:25:08;14.0;;;12.2;;
38220;SDS011;24023;51.280;7.148;2022-11-20T13:30:12;13.8;;;11.9;;
38220;SDS011;24023;51.280;7.148;2022-11-20T13:35:08;13.8;;;11.9;;
38220;SDS011;24023;51.280;7.148;2022-11-20T13:40:20;13.8;;;11.9;;
38220;SDS011;24023;51.280;7.148;2022-11-20T13:45:11;16.6;;;13.1;;
38220;SDS011;24023;51.280;7.148;2022-11-20T13:50:08;16.6;;;13.1;;
38220;SDS011;24023;51.280;7.148;2022-11-20T13:55:11;13.4;;;12.0;;
38220;SDS011;24023;51.280;7.148;2022-11-20T14:00:12;13.4;;;12.0;;
38220;SDS011;24023;51.280;7.148;2022-11-20T14:05:06;13.4;;;12.0;;
38220;SDS011;24023;51.280;7.148;2022-11-20T14:10:18;14.6;;;12.2;;
38220;SDS011;24023;51.280;7.148;2022-11-20T14:15:23;14.6;;;12.2;;
38220;SDS011;24023;51.280;7.148;2022-11-20T14:20:11;15.7;;;13.4;;
38220;SDS011;24023;51.280;7.148;2022-11-20T14:25:17;15.7;;;13.4;;
38220;SDS011;24023;51.280;7.148;2022-11-20T14:30:12;15.7;;;13.4;;
38220;SDS011;24023;51.280;7.148;2022-11-20T14:35:07;17.2;;;13.8;;
38220;SDS011;24023;51.280;7.148;2022-11-20T14:40:21;17.2;;;13.8;;
38220;SDS011;24023;51.280;7.148;2022-11-20T14:45:11;17.8;;;14.1;;
38220;SDS011;24023;51.280;7.148;2022-11-20T14:50:08;17.8;;;14.1;;
38220;SDS011;24023;51.280;7.148;2022-11-20T14:55:07;18.7;;;15.1;;
38220;SDS011;24023;51.280;7.148;2022-11-20T15:00:18;18.7;;;15.1;;
38220;SDS011;24023;51.280;7.148;2022-11-20T15:05:06;18.7;;;15.1;;
38220;SDS011;24023;51.280;7.148;2022-11-20T15:10:08;19.8;;;14.5;;
38220;SDS011;24023;51.280;7.148;2022-11-20T15:15:09;18.1;;;15.0;;
38220;SDS011;24023;51.280;7.148;2022-11-20T15:20:09;18.1;;;15.0;;
38220;SDS011;24023;51.280;7.148;2022-11-20T15:25:11;18.1;;;15.0;;
38220;SDS011;24023;51.280;7.148;2022-11-20T15:30:12;17.1;;;14.1;;
38220;SDS011;24023;51.280;7.148;2022-11-20T15:35:06;17.1;;;14.1;;
38220;SDS011;24023;51.280;7.148;2022-11-20T15:40:07;17.1;;;14.3;;
38220;SDS011;24023;51.280;7.148;2022-11-20T15:45:10;17.1;;;14.3;;
38220;SDS011;24023;51.280;7.148;2022-11-20T15:50:08;17.1;;;14.3;;
38220;SDS011;24023;51.280;7.148;2022-11-20T15:55:07;16.3;;;14.3;;
38220;SDS011;24023;51.280;7.148;2022-11-20T16:00:10;16.3;;;14.3;;
38220;SDS011;24023;51.280;7.148;2022-11-20T16:05:09;14.1;;;12.1;;
38220;SDS011;24023;51.280;7.148;2022-11-20T16:10:08;14.1;;;12.1;;
38220;SDS011;24023;51.280;7.148;2022-11-20T16:16:16;14.1;;;12.1;;
38220;SDS011;24023;51.280;7.148;2022-11-20T16:20:10;15.4;;;12.8;;
38220;SDS011;24023;51.280;7.148;2022-11-20T16:25:07;15.4;;;12.8;;
38220;SDS011;24023;51.280;7.148;2022-11-20T16:30:09;15.2;;;12.2;;
38220;SDS011;24023;51.280;7.148;2022-11-20T16:35:07;15.2;;;12.2;;
38220;SDS011;24023;51.280;7.148;2022-11-20T16:40:07;15.2;;;12.2;;
38220;SDS011;24023;51.280;7.148;2022-11-20T16:45:09;12.9;;;10.4;;
38220;SDS011;24023;51.280;7.148;2022-11-20T16:50:08;12.9;;;10.4;;
38220;SDS011;24023;51.280;7.148;2022-11-20T16:55:06;12.9;;;10.4;;
38220;SDS011;24023;51.280;7.148;2022-11-20T17:00:11;13.0;;;10.7;;
38220;SDS011;24023;51.280;7.148;2022-11-20T17:05:07;11.2;;;9.4;;
38220;SDS011;24023;51.280;7.148;2022-11-20T17:10:08;11.2;;;9.4;;
38220;SDS011;24023;51.280;7.148;2022-11-20T17:15:07;15.2;;;11.1;;
38220;SDS011;24023;51.280;7.148;2022-11-20T17:20:08;15.2;;;11.1;;
38220;SDS011;24023;51.280;7.148;2022-11-20T17:25:06;15.2;;;11.1;;
38220;SDS011;24023;51.280;7.148;2022-11-20T17:30:10;14.2;;;9.7;;
38220;SDS011;24023;51.280;7.148;2022-11-20T17:35:06;12.5;;;8.7;;
38220;SDS011;24023;51.280;7.148;2022-11-20T17:40:08;12.5;;;8.7;;
38220;SDS011;24023;51.280;7.148;2022-11-20T17:45:11;8.2;;;6.1;;
38220;SDS011;24023;51.280;7.148;2022-11-20T17:50:07;8.2;;;6.1;;
38220;SDS011;24023;51.280;7.148;2022-11-20T17:55:06;6.1;;;4.6;;
38220;SDS011;24023;51.280;7.148;2022-11-20T18:00:12;6.1;;;4.6;;
38220;SDS011;24023;51.280;7.148;2022-11-20T18:05:06;6.1;;;4.6;;
38220;SDS011;24023;51.280;7.148;2022-11-20T18:10:07;4.7;;;4.1;;
38220;SDS011;24023;51.280;7.148;2022-11-20T18:15:07;4.7;;;4.1;;
38220;SDS011;24023;51.280;7.148;2022-11-20T18:20:08;4.0;;;3.4;;
38220;SDS011;24023;51.280;7.148;2022-11-20T18:25:06;4.0;;;3.4;;
38220;SDS011;24023;51.280;7.148;2022-11-20T18:30:11;5.2;;;4.1;;
38220;SDS011;24023;51.280;7.148;2022-11-20T18:35:06;5.2;;;4.1;;
38220;SDS011;24023;51.280;7.148;2022-11-20T18:40:08;5.2;;;4.1;;
38220;SDS011;24023;51.280;7.148;2022-11-20T18:45:09;4.0;;;3.0;;
38220;SDS011;24023;51.280;7.148;2022-11-20T18:50:07;4.0;;;3.0;;
38220;SDS011;24023;51.280;7.148;2022-11-20T18:55:06;2.2;;;2.0;;
38220;SDS011;24023;51.280;7.148;2022-11-20T19:00:11;2.2;;;2.0;;
38220;SDS011;24023;51.280;7.148;2022-11-20T19:05:06;2.2;;;2.0;;
38220;SDS011;24023;51.280;7.148;2022-11-20T19:10:07;2.7;;;2.3;;
38220;SDS011;24023;51.280;7.148;2022-11-20T19:15:07;2.7;;;2.3;;
38220;SDS011;24023;51.280;7.148;2022-11-20T19:20:07;3.3;;;1.6;;
38220;SDS011;24023;51.280;7.148;2022-11-20T19:25:07;3.3;;;1.6;;
38220;SDS011;24023;51.280;7.148;2022-11-20T19:30:09;2.2;;;1.4;;
38220;SDS011;24023;51.280;7.148;2022-11-20T19:35:08;2.2;;;1.4;;
38220;SDS011;24023;51.280;7.148;2022-11-20T19:40:08;2.2;;;1.4;;
38220;SDS011;24023;51.280;7.148;2022-11-20T19:45:10;2.9;;;1.7;;
38220;SDS011;24023;51.280;7.148;2022-11-20T19:50:08;2.9;;;1.7;;
38220;SDS011;24023;51.280;7.148;2022-11-20T19:55:06;4.3;;;1.9;;
38220;SDS011;24023;51.280;7.148;2022-11-20T20:00:13;4.3;;;1.9;;
38220;SDS011;24023;51.280;7.148;2022-11-20T20:05:06;4.3;;;1.9;;
38220;SDS011;24023;51.280;7.148;2022-11-20T20:10:07;3.0;;;1.7;;
38220;SDS011;24023;51.280;7.148;2022-11-20T20:15:07;3.0;;;1.7;;
38220;SDS011;24023;51.280;7.148;2022-11-20T20:20:08;3.7;;;1.7;;
38220;SDS011;24023;51.280;7.148;2022-11-20T20:25:06;3.7;;;1.7;;
38220;SDS011;24023;51.280;7.148;2022-11-20T20:30:11;3.7;;;1.7;;
38220;SDS011;24023;51.280;7.148;2022-11-20T20:35:06;7.8;;;2.9;;
38220;SDS011;24023;51.280;7.148;2022-11-20T20:40:08;7.8;;;2.9;;
38220;SDS011;24023;51.280;7.148;2022-11-20T20:45:10;4.9;;;2.7;;
38220;SDS011;24023;51.280;7.148;2022-11-20T20:50:09;4.9;;;2.7;;
38220;SDS011;24023;51.280;7.148;2022-11-20T20:55:06;4.9;;;2.7;;
38220;SDS011;24023;51.280;7.148;2022-11-20T21:00:10;5.6;;;3.1;;
38220;SDS011;24023;51.280;7.148;2022-11-20T21:05:07;5.6;;;3.1;;
38220;SDS011;24023;51.280;7.148;2022-11-20T21:10:08;4.9;;;3.0;;
38220;SDS011;24023;51.280;7.148;2022-11-20T21:15:08;4.9;;;3.0;;
38220;SDS011;24023;51.280;7.148;2022-11-20T21:21:58;4.9;;;3.0;;
38220;SDS011;24023;51.280;7.148;2022-11-20T21:25:06;5.3;;;3.9;;
38220;SDS011;24023;51.280;7.148;2022-11-20T21:30:09;5.3;;;3.9;;
38220;SDS011;24023;51.280;7.148;2022-11-20T21:35:07;5.8;;;4.7;;
38220;SDS011;24023;51.280;7.148;2022-11-20T21:40:08;5.8;;;4.7;;
38220;SDS011;24023;51.280;7.148;2022-11-20T21:45:10;7.1;;;6.4;;
38220;SDS011;24023;51.280;7.148;2022-11-20T21:50:08;7.1;;;6.4;;
38220;SDS011;24023;51.280;7.148;2022-11-20T21:55:06;7.1;;;6.4;;
38220;SDS011;24023;51.280;7.148;2022-11-20T22:00:11;7.7;;;6.9;;
38220;SDS011;24023;51.280;7.148;2022-11-20T22:05:07;9.4;;;8.5;;
38220;SDS011;24023;51.280;7.148;2022-11-20T22:10:07;9.4;;;8.5;;
38220;SDS011;24023;51.280;7.148;2022-11-20T22:15:08;9.4;;;8.5;;
38220;SDS011;24023;51.280;7.148;2022-11-20T22:20:08;10.4;;;9.3;;
38220;SDS011;24023;51.280;7.148;2022-11-20T22:25:06;10.4;;;9.3;;
38220;SDS011;24023;51.280;7.148;2022-11-20T22:30:09;9.2;;;8.1;;
38220;SDS011;24023;51.280;7.148;2022-11-20T22:35:06;11.9;;;9.6;;
38220;SDS011;24023;51.280;7.148;2022-11-20T22:40:08;11.9;;;9.6;;
38220;SDS011;24023;51.280;7.148;2022-11-20T22:45:09;10.1;;;9.0;;
38220;SDS011;24023;51.280;7.148;2022-11-20T22:50:07;10.1;;;9.0;;
38220;SDS011;24023;51.280;7.148;2022-11-20T22:55:06;10.1;;;9.0;;
38220;SDS011;24023;51.280;7.148;2022-11-20T23:00:23;9.5;;;8.5;;
38220;SDS011;24023;51.280;7.148;2022-11-20T23:05:10;9.5;;;8.5;;
38220;SDS011;24023;51.280;7.148;2022-11-20T23:10:08;8.7;;;7.2;;
38220;SDS011;24023;51.280;7.148;2022-11-20T23:15:08;5.7;;;5.1;;
38220;SDS011;24023;51.280;7.148;2022-11-20T23:20:08;5.7;;;5.1;;
38220;SDS011;24023;51.280;7.148;2022-11-20T23:25:06;5.7;;;5.1;;
38220;SDS011;24023;51.280;7.148;2022-11-20T23:30:09;4.3;;;3.9;;
38220;SDS011;24023;51.280;7.148;2022-11-20T23:35:07;4.3;;;3.9;;
38220;SDS011;24023;51.280;7.148;2022-11-20T23:40:08;3.8;;;2.7;;
38220;SDS011;24023;51.280;7.148;2022-11-20T23:45:10;2.1;;;1.8;;
38220;SDS011;24023;51.280;7.148;2022-11-20T23:50:08;2.1;;;1.8;;
38220;SDS011;24023;51.280;7.148;2022-11-20T23:55:06;2.1;;;1.8;;
